Time;durP1;ratioP1;P1;durP2;ratioP2;P2;SDS_P1;SDS_P2;PMS_P1;PMS_P2;Temp;Humidity;BMP_temperature;BMP_pressure;BME280_temperature;BME280_humidity;BME280_pressure;Samples;Min_cycle;Max_cycle;Signal;HPM_P1;HPM_P2
2020/12/21 00:01:20;;;;;;;2.30;1.05;;;7.30;92.50;;;;;;5112445;28;20058;-69
2020/12/21 00:03:45;;;;;;;2.47;1.08;;;7.20;92.50;;;;;;5112989;28;20036;-69
2020/12/21 00:06:13;;;;;;;2.65;1.10;;;7.20;92.50;;;;;;5112127;28;20489;-69
2020/12/21 00:08:39;;;;;;;3.92;1.25;;;7.10;92.40;;;;;;5112301;28;20039;-69
2020/12/21 00:11:05;;;;;;;3.97;1.20;;;7.10;92.50;;;;;;5112221;28;20119;-69
2020/12/21 00:13:31;;;;;;;2.78;1.25;;;7.10;92.50;;;;;;5112277;28;20486;-69
2020/12/21 00:15:57;;;;;;;3.75;1.27;;;7.10;92.50;;;;;;5112242;28;20035;-69
2020/12/21 00:18:23;;;;;;;4.60;1.15;;;7.10;92.50;;;;;;5112060;28;20047;-69
2020/12/21 00:20:49;;;;;;;3.33;1.00;;;7.10;92.50;;;;;;5112181;28;20048;-69
2020/12/21 00:23:15;;;;;;;2.30;1.00;;;7.10;92.50;;;;;;5112550;28;20062;-69
2020/12/21 00:25:41;;;;;;;2.55;1.23;;;7.00;92.50;;;;;;5111987;28;20047;-70
2020/12/21 00:28:07;;;;;;;3.40;1.25;;;7.10;92.50;;;;;;5092036;28;20134;-70
2020/12/21 00:30:33;;;;;;;3.17;1.20;;;7.00;92.50;;;;;;5112291;28;20546;-70
2020/12/21 00:32:58;;;;;;;1.90;1.00;;;7.00;92.60;;;;;;5112480;28;20031;-70
2020/12/21 00:35:24;;;;;;;1.63;0.98;;;7.00;92.50;;;;;;5093896;28;20405;-69
2020/12/21 00:37:50;;;;;;;1.98;1.02;;;6.90;92.50;;;;;;5112569;28;20038;-70
2020/12/21 00:40:15;;;;;;;3.22;1.05;;;6.90;92.60;;;;;;5094343;28;20448;-69
2020/12/21 00:42:44;;;;;;;3.20;1.00;;;6.90;92.60;;;;;;5112539;28;20040;-69
2020/12/21 00:45:10;;;;;;;3.85;1.08;;;6.90;92.60;;;;;;5112382;28;20044;-70
2020/12/21 00:47:36;;;;;;;2.05;0.80;;;6.90;92.60;;;;;;5111946;28;20043;-70
2020/12/21 00:50:03;;;;;;;2.35;1.00;;;6.90;92.60;;;;;;5112276;28;20036;-70
2020/12/21 00:52:28;;;;;;;2.58;0.85;;;6.90;92.70;;;;;;5111863;28;20089;-70
2020/12/21 00:54:54;;;;;;;1.10;0.73;;;6.80;92.70;;;;;;5111861;28;20036;-70
2020/12/21 00:57:20;;;;;;;1.10;0.80;;;6.70;92.70;;;;;;5111673;28;20080;-70
2020/12/21 00:59:45;;;;;;;2.75;1.02;;;6.80;92.80;;;;;;5112208;28;20476;-70
2020/12/21 01:02:11;;;;;;;1.27;0.80;;;6.70;92.70;;;;;;5112256;28;20071;-70
2020/12/21 01:04:37;;;;;;;1.20;0.75;;;6.70;92.80;;;;;;5111842;28;20089;-70
2020/12/21 01:07:03;;;;;;;1.85;0.90;;;6.70;92.80;;;;;;5111676;28;20489;-70
2020/12/21 01:09:29;;;;;;;2.15;0.80;;;6.70;92.80;;;;;;5111845;28;20044;-69
2020/12/21 01:11:55;;;;;;;1.40;0.75;;;6.70;92.80;;;;;;5111806;28;20068;-69
2020/12/21 01:14:21;;;;;;;1.73;0.80;;;6.60;92.80;;;;;;5113756;28;20044;-70
2020/12/21 01:16:46;;;;;;;1.67;0.90;;;6.60;92.80;;;;;;5114842;28;20093;-69
2020/12/21 01:19:12;;;;;;;1.75;0.75;;;6.60;92.80;;;;;;5115127;28;20034;-69
2020/12/21 01:21:38;;;;;;;1.70;0.90;;;6.60;92.80;;;;;;5115121;28;20035;-70
2020/12/21 01:24:03;;;;;;;1.25;0.85;;;6.60;92.80;;;;;;5114947;28;20447;-69
2020/12/21 01:26:30;;;;;;;1.88;0.82;;;6.60;92.80;;;;;;5115159;28;20413;-70
2020/12/21 01:28:57;;;;;;;1.35;0.80;;;6.60;92.80;;;;;;5115235;28;20036;-69
2020/12/21 01:31:23;;;;;;;1.63;0.95;;;6.60;92.80;;;;;;5114862;28;20050;-70
2020/12/21 01:33:50;;;;;;;2.10;0.70;;;6.60;92.80;;;;;;5114555;28;20032;-69
2020/12/21 01:36:17;;;;;;;1.23;0.75;;;6.60;92.80;;;;;;5114778;28;20044;-69
2020/12/21 01:38:43;;;;;;;2.55;0.90;;;6.60;92.80;;;;;;5114716;28;20035;-69
2020/12/21 01:41:09;;;;;;;2.08;0.90;;;6.60;92.80;;;;;;5115071;28;20470;-69
2020/12/21 01:43:35;;;;;;;2.58;0.85;;;6.50;92.70;;;;;;5114419;28;20039;-69
2020/12/21 01:46:09;;;;;;;1.55;0.70;;;6.50;92.80;;;;;;5114415;28;20130;-69
2020/12/21 01:48:36;;;;;;;2.30;1.00;;;6.50;92.80;;;;;;5114416;28;20572;-70
2020/12/21 01:51:05;;;;;;;4.13;1.17;;;6.50;92.80;;;;;;5114694;28;20051;-69
2020/12/21 01:53:32;;;;;;;1.80;0.80;;;6.50;92.80;;;;;;5114656;28;20043;-69
2020/12/21 01:56:02;;;;;;;5.18;0.70;;;6.50;92.80;;;;;;5114758;28;20426;-70
2020/12/21 01:58:28;;;;;;;2.58;0.73;;;6.50;92.80;;;;;;5114062;28;20508;-70
2020/12/21 02:00:54;;;;;;;3.85;0.95;;;6.50;92.80;;;;;;5114406;28;20039;-70
2020/12/21 02:03:20;;;;;;;1.17;1.00;;;6.50;92.80;;;;;;5114110;28;20140;-70
2020/12/21 02:05:45;;;;;;;2.10;0.93;;;6.50;92.80;;;;;;5114479;28;20036;-70
2020/12/21 02:08:11;;;;;;;0.80;0.65;;;6.50;93.10;;;;;;5114276;28;20093;-70
2020/12/21 02:10:37;;;;;;;2.33;0.88;;;6.60;92.80;;;;;;5094568;28;20401;-70
2020/12/21 02:13:03;;;;;;;1.55;0.73;;;6.50;92.80;;;;;;5114455;28;20123;-70
2020/12/21 02:15:29;;;;;;;2.65;0.95;;;6.50;92.80;;;;;;5113943;28;20477;-70
2020/12/21 02:17:55;;;;;;;1.83;0.85;;;6.50;92.80;;;;;;5114313;28;20046;-69
2020/12/21 02:20:28;;;;;;;1.95;0.95;;;6.50;92.70;;;;;;5114347;28;20034;-70
2020/12/21 02:22:55;;;;;;;2.33;0.98;;;6.50;92.70;;;;;;5114270;28;20497;-70
2020/12/21 02:25:21;;;;;;;1.50;0.88;;;6.50;92.70;;;;;;5113754;28;20044;-70
2020/12/21 02:27:46;;;;;;;1.27;0.90;;;6.50;92.70;;;;;;5113866;28;20043;-70
2020/12/21 02:30:12;;;;;;;1.92;1.00;;;6.50;92.70;;;;;;5113509;28;20496;-70
2020/12/21 02:32:38;;;;;;;1.00;0.70;;;6.50;92.80;;;;;;5113859;28;20054;-70
2020/12/21 02:35:06;;;;;;;1.55;0.98;;;6.40;92.80;;;;;;5093481;28;20105;-69
2020/12/21 02:37:32;;;;;;;2.03;0.98;;;6.40;92.80;;;;;;5113516;28;20379;-70
2020/12/21 02:39:58;;;;;;;2.70;0.80;;;6.40;92.80;;;;;;5113667;28;20382;-69
2020/12/21 02:42:24;;;;;;;1.23;0.77;;;6.40;92.80;;;;;;5114163;28;20126;-69
2020/12/21 02:44:49;;;;;;;1.60;0.90;;;6.40;92.80;;;;;;5095832;28;20048;-70
2020/12/21 02:47:15;;;;;;;3.22;1.00;;;6.40;92.70;;;;;;5113682;28;20409;-70
2020/12/21 02:49:41;;;;;;;2.90;0.90;;;6.50;92.80;;;;;;5113418;28;20093;-70
2020/12/21 02:52:06;;;;;;;2.50;0.80;;;6.40;92.70;;;;;;5113889;28;20418;-70
2020/12/21 02:54:32;;;;;;;2.40;1.00;;;6.40;92.70;;;;;;5113176;28;20039;-70
2020/12/21 02:56:58;;;;;;;1.20;0.70;;;6.50;92.80;;;;;;5113519;28;20050;-69
2020/12/21 02:59:23;;;;;;;1.13;0.70;;;6.40;92.80;;;;;;5113793;28;20044;-69
2020/12/21 03:01:49;;;;;;;3.20;0.82;;;6.40;92.80;;;;;;5113602;28;20032;-69
2020/12/21 03:04:15;;;;;;;3.22;0.88;;;6.40;92.80;;;;;;5095051;28;20101;-70
2020/12/21 03:06:40;;;;;;;1.50;0.77;;;6.30;92.80;;;;;;5113289;28;20097;-69
2020/12/21 03:09:06;;;;;;;1.13;0.60;;;6.40;92.80;;;;;;5095592;28;20094;-69
2020/12/21 03:11:32;;;;;;;3.15;1.00;;;6.40;92.80;;;;;;5113548;28;20474;-69
2020/12/21 03:13:58;;;;;;;2.25;0.90;;;6.30;92.80;;;;;;5094756;28;20130;-69
2020/12/21 03:16:24;;;;;;;0.30;0.30;;;6.30;92.90;;;;;;5113239;28;20118;-69
2020/12/21 03:18:51;;;;;;;0.60;0.50;;;6.40;92.90;;;;;;5113057;28;20048;-69
2020/12/21 03:21:16;;;;;;;0.60;0.60;;;6.40;92.90;;;;;;5113207;28;20041;-69
2020/12/21 03:23:43;;;;;;;0.90;0.70;;;6.30;92.90;;;;;;5113469;28;20031;-69
2020/12/21 03:26:09;;;;;;;1.33;0.63;;;6.30;92.90;;;;;;5109307;28;20458;-69
2020/12/21 03:28:35;;;;;;;0.70;0.60;;;6.20;92.80;;;;;;5094710;28;20138;-69
2020/12/21 03:31:01;;;;;;;1.15;0.60;;;6.30;92.90;;;;;;5112837;28;20036;-70
2020/12/21 03:33:27;;;;;;;0.82;0.68;;;6.20;92.90;;;;;;5112942;28;20084;-69
2020/12/21 03:35:52;;;;;;;0.75;0.47;;;6.30;92.90;;;;;;5111861;28;20092;-69
2020/12/21 03:38:18;;;;;;;0.70;0.43;;;6.20;92.90;;;;;;5112798;28;20118;-69
2020/12/21 03:40:44;;;;;;;0.35;0.35;;;6.20;93.00;;;;;;5112815;28;20508;-69
2020/12/21 03:43:09;;;;;;;1.27;0.60;;;6.20;93.00;;;;;;5092663;28;20444;-69
2020/12/21 03:45:35;;;;;;;0.98;0.63;;;6.20;93.00;;;;;;5112569;28;20036;-69
2020/12/21 03:48:01;;;;;;;0.57;0.50;;;6.10;93.00;;;;;;5112448;28;20036;-69
2020/12/21 03:50:27;;;;;;;1.23;0.50;;;6.10;93.10;;;;;;5112430;28;20354;-69
2020/12/21 03:52:53;;;;;;;2.15;0.45;;;6.10;93.10;;;;;;5112385;28;20036;-69
2020/12/21 03:55:19;;;;;;;1.17;0.50;;;6.20;93.10;;;;;;5112451;28;20065;-69
2020/12/21 03:57:44;;;;;;;0.75;0.55;;;6.10;93.10;;;;;;5112843;28;20519;-69
2020/12/21 04:00:10;;;;;;;0.32;0.30;;;6.10;93.10;;;;;;5112437;28;20130;-70
2020/12/21 04:02:37;;;;;;;0.47;0.43;;;6.20;93.10;;;;;;5112775;28;20047;-69
2020/12/21 04:05:05;;;;;;;1.33;0.40;;;6.10;93.10;;;;;;5112388;28;20451;-70
2020/12/21 04:07:31;;;;;;;0.65;0.50;;;6.00;93.10;;;;;;5112408;28;20370;-69
2020/12/21 04:09:56;;;;;;;0.50;0.20;;;6.10;93.40;;;;;;5112898;28;20139;-69
2020/12/21 04:12:22;;;;;;;1.08;0.50;;;6.10;93.10;;;;;;5112992;28;20059;-69
2020/12/21 04:14:48;;;;;;;0.60;0.43;;;6.00;93.10;;;;;;5112716;28;20481;-69
2020/12/21 04:17:14;;;;;;;1.85;0.40;;;6.10;93.10;;;;;;5112754;28;20452;-69
2020/12/21 04:19:39;;;;;;;0.63;0.30;;;6.00;93.10;;;;;;5112678;28;20059;-69
2020/12/21 04:22:05;;;;;;;0.20;0.20;;;6.00;93.10;;;;;;5112601;28;20051;-69
2020/12/21 04:24:30;;;;;;;0.68;0.35;;;6.00;93.20;;;;;;5112142;28;20042;-69
2020/12/21 04:26:56;;;;;;;1.85;0.57;;;5.90;93.10;;;;;;5093837;28;20048;-69
2020/12/21 04:29:22;;;;;;;0.57;0.40;;;6.00;93.20;;;;;;5112257;28;20042;-69
2020/12/21 04:31:53;;;;;;;0.47;0.47;;;6.00;93.20;;;;;;5112238;28;20035;-69
2020/12/21 04:34:18;;;;;;;0.52;0.50;;;6.00;93.10;;;;;;5109292;28;20031;-69
2020/12/21 04:36:44;;;;;;;1.58;0.80;;;6.00;93.10;;;;;;5112373;28;20530;-69
2020/12/21 04:39:10;;;;;;;1.48;0.90;;;6.00;93.10;;;;;;5112332;28;20035;-69
2020/12/21 04:41:35;;;;;;;2.35;0.60;;;6.00;93.10;;;;;;5093897;28;20139;-69
2020/12/21 04:44:02;;;;;;;0.98;0.68;;;6.00;93.10;;;;;;5112063;28;20052;-69
2020/12/21 04:46:28;;;;;;;2.03;0.55;;;5.90;93.00;;;;;;5112390;28;20042;-69
2020/12/21 04:48:58;;;;;;;2.50;0.60;;;6.00;93.10;;;;;;5115029;28;20039;-69
2020/12/21 04:51:32;;;;;;;0.90;0.50;;;5.90;93.10;;;;;;5115417;28;20088;-69
2020/12/21 04:53:58;;;;;;;1.15;0.50;;;5.90;93.10;;;;;;5115498;28;20496;-69
2020/12/21 04:56:24;;;;;;;0.57;0.40;;;5.90;93.10;;;;;;5097137;28;20040;-69
2020/12/21 04:58:50;;;;;;;0.95;0.50;;;5.90;93.10;;;;;;5115374;28;20063;-69
2020/12/21 05:01:16;;;;;;;0.85;0.50;;;5.90;93.10;;;;;;5115282;28;20097;-69
2020/12/21 05:03:49;;;;;;;1.42;0.60;;;5.90;93.10;;;;;;5115610;28;20481;-69
2020/12/21 05:06:14;;;;;;;1.85;0.63;;;6.00;93.10;;;;;;5115476;28;20208;-69
2020/12/21 05:08:40;;;;;;;2.75;0.55;;;5.90;93.10;;;;;;5116004;28;20554;-69
2020/12/21 05:11:06;;;;;;;1.45;0.63;;;6.00;93.10;;;;;;5097223;28;20048;-69
2020/12/21 05:13:33;;;;;;;0.52;0.50;;;6.00;93.10;;;;;;5115164;28;20040;-69
2020/12/21 05:16:00;;;;;;;0.80;0.50;;;5.90;93.10;;;;;;5097710;28;20371;-70
2020/12/21 05:18:29;;;;;;;0.60;0.30;;;5.90;93.10;;;;;;5115710;28;20039;-69
2020/12/21 05:21:01;;;;;;;0.55;0.38;;;5.90;93.20;;;;;;5115187;28;20136;-69
2020/12/21 05:23:27;;;;;;;1.52;0.50;;;5.90;93.20;;;;;;5114991;28;20138;-70
2020/12/21 05:26:00;;;;;;;0.75;0.40;;;5.90;93.20;;;;;;5115135;28;20036;-70
2020/12/21 05:28:30;;;;;;;0.65;0.30;;;5.90;93.20;;;;;;5112933;28;20037;-69
2020/12/21 05:30:59;;;;;;;0.40;0.30;;;5.90;93.10;;;;;;5114979;28;20050;-70
2020/12/21 05:33:25;;;;;;;0.60;0.50;;;5.90;93.20;;;;;;5112619;28;20039;-69
2020/12/21 05:35:51;;;;;;;0.55;0.40;;;5.90;93.20;;;;;;5096770;28;20039;-69
2020/12/21 05:38:22;;;;;;;0.57;0.40;;;5.80;93.20;;;;;;5115509;28;20067;-69
2020/12/21 05:40:48;;;;;;;0.57;0.30;;;5.90;93.20;;;;;;5115446;28;20089;-70
2020/12/21 05:43:31;;;;;;;0.22;0.22;;;6.00;93.20;;;;;;5114915;28;20444;-69
2020/12/21 05:46:02;;;;;;;0.73;0.40;;;5.80;93.20;;;;;;5112214;28;20525;-69
2020/12/21 05:48:32;;;;;;;0.70;0.30;;;5.80;93.20;;;;;;5114598;28;20074;-70
2020/12/21 05:51:02;;;;;;;0.98;0.40;;;5.80;93.30;;;;;;5114553;28;20485;-70
2020/12/21 05:53:34;;;;;;;0.38;0.32;;;5.80;93.30;;;;;;5114640;28;20477;-70
2020/12/21 05:56:02;;;;;;;0.77;0.40;;;5.80;93.30;;;;;;5114895;28;20035;-69
2020/12/21 05:58:33;;;;;;;0.70;0.40;;;5.80;93.30;;;;;;5115037;28;20085;-69
2020/12/21 06:01:02;;;;;;;0.60;0.20;;;5.80;93.20;;;;;;5093970;28;20043;-69
2020/12/21 06:03:45;;;;;;;0.35;0.20;;;5.80;93.30;;;;;;5114533;28;20122;-69
2020/12/21 06:06:14;;;;;;;1.00;0.30;;;5.70;93.30;;;;;;5112666;28;20504;-69
2020/12/21 06:08:41;;;;;;;0.85;0.30;;;5.70;93.30;;;;;;5114689;28;20035;-70
2020/12/21 06:11:09;;;;;;;0.68;0.22;;;5.70;93.30;;;;;;5114247;28;20181;-69
2020/12/21 06:13:39;;;;;;;0.82;0.40;;;5.70;93.40;;;;;;5114486;28;20045;-69
2020/12/21 06:16:06;;;;;;;0.52;0.28;;;5.80;93.40;;;;;;5114791;28;20044;-70
2020/12/21 06:18:32;;;;;;;0.30;0.30;;;5.70;93.40;;;;;;5114172;28;20046;-70
2020/12/21 06:20:58;;;;;;;0.30;0.30;;;5.80;93.40;;;;;;5114691;28;20126;-70
2020/12/21 06:23:37;;;;;;;0.38;0.10;;;5.70;93.30;;;;;;5114232;28;20043;-70
2020/12/21 06:26:11;;;;;;;0.50;0.30;;;5.80;93.30;;;;;;5114087;28;20035;-70
2020/12/21 06:28:37;;;;;;;0.55;0.20;;;5.80;93.30;;;;;;5095684;28;20047;-69
2020/12/21 06:31:19;;;;;;;1.20;0.30;;;5.80;93.30;;;;;;5114242;28;20040;-70
2020/12/21 06:33:46;;;;;;;0.30;0.30;;;5.80;93.30;;;;;;5114024;28;20096;-69
2020/12/21 06:36:12;;;;;;;0.65;0.28;;;5.70;93.20;;;;;;5114469;28;20032;-69
2020/12/21 06:38:52;;;;;;;0.30;0.20;;;5.80;93.30;;;;;;5114382;28;20043;-70
2020/12/21 06:41:24;;;;;;;0.93;0.22;;;5.80;93.30;;;;;;5113873;28;20040;-70
2020/12/21 06:43:56;;;;;;;0.20;0.20;;;5.80;93.30;;;;;;5114261;28;20063;-71
2020/12/21 06:46:22;;;;;;;0.40;0.20;;;5.70;93.30;;;;;;5113960;28;20050;-70
2020/12/21 06:49:03;;;;;;;0.30;0.30;;;5.70;93.30;;;;;;5114177;28;20039;-70
2020/12/21 06:51:30;;;;;;;1.88;0.40;;;5.70;93.30;;;;;;5113963;28;20052;-70
2020/12/21 06:53:57;;;;;;;0.95;0.30;;;5.80;93.30;;;;;;5114045;28;20077;-69
2020/12/21 06:56:26;;;;;;;0.65;0.30;;;5.70;93.30;;;;;;5113750;28;20039;-70
2020/12/21 06:58:53;;;;;;;0.55;0.30;;;5.80;93.30;;;;;;5113605;28;20043;-70
2020/12/21 07:01:22;;;;;;;0.30;0.30;;;5.70;93.40;;;;;;5113973;28;20043;-70
2020/12/21 07:03:47;;;;;;;1.60;0.50;;;5.70;93.40;;;;;;5113653;28;20132;-70
2020/12/21 07:06:13;;;;;;;1.02;0.35;;;5.70;93.40;;;;;;5095151;28;20051;-70
2020/12/21 07:08:39;;;;;;;0.90;0.30;;;5.60;93.40;;;;;;5113899;28;20063;-70
2020/12/21 07:11:05;;;;;;;0.45;0.30;;;5.60;93.40;;;;;;5112842;28;20043;-70
2020/12/21 07:13:32;;;;;;;0.57;0.38;;;5.60;93.40;;;;;;5114050;28;20062;-70
2020/12/21 07:16:00;;;;;;;1.00;0.47;;;5.60;93.50;;;;;;5113661;28;20557;-70
2020/12/21 07:18:26;;;;;;;1.27;0.30;;;5.70;93.50;;;;;;5113365;28;20051;-70
2020/12/21 07:20:54;;;;;;;0.55;0.40;;;5.60;93.40;;;;;;5113882;28;20044;-70
2020/12/21 07:23:20;;;;;;;0.22;0.20;;;5.60;93.50;;;;;;5113852;28;20057;-70
2020/12/21 07:25:49;;;;;;;0.88;0.28;;;5.60;93.50;;;;;;5113830;28;20122;-70
2020/12/21 07:28:28;;;;;;;0.95;0.40;;;5.60;93.50;;;;;;5113159;28;20092;-70
2020/12/21 07:31:04;;;;;;;1.55;0.47;;;5.60;93.50;;;;;;5110911;28;20393;-69
2020/12/21 07:33:31;;;;;;;0.28;0.10;;;5.60;93.50;;;;;;5112875;28;20392;-69
2020/12/21 07:35:58;;;;;;;0.30;0.20;;;5.70;93.50;;;;;;5112976;28;20032;-70
2020/12/21 07:38:24;;;;;;;0.80;0.40;;;5.70;93.50;;;;;;5094041;28;20036;-70
2020/12/21 07:40:51;;;;;;;0.38;0.30;;;5.70;93.40;;;;;;5113371;28;20093;-69
2020/12/21 07:43:23;;;;;;;0.85;0.40;;;5.80;93.70;;;;;;5112994;28;20050;-69
2020/12/21 07:45:50;;;;;;;0.30;0.30;;;5.80;93.40;;;;;;5113203;28;20047;-69
2020/12/21 07:48:18;;;;;;;0.77;0.55;;;5.90;93.40;;;;;;5112666;28;20067;-69
2020/12/21 07:50:45;;;;;;;2.00;0.40;;;5.90;93.30;;;;;;5112724;28;20047;-70
2020/12/21 07:53:11;;;;;;;1.75;0.50;;;6.00;93.30;;;;;;5112848;28;20554;-70
2020/12/21 07:55:37;;;;;;;0.38;0.38;;;6.00;93.20;;;;;;5112841;28;20096;-69
2020/12/21 07:58:14;;;;;;;0.98;0.30;;;6.20;93.30;;;;;;5113194;28;20032;-69
2020/12/21 08:00:40;;;;;;;1.45;0.22;;;6.10;93.20;;;;;;5112939;28;20071;-70
2020/12/21 08:03:11;;;;;;;2.03;0.35;;;6.10;93.20;;;;;;5112773;28;20059;-69
2020/12/21 08:05:37;;;;;;;0.32;0.30;;;6.10;93.20;;;;;;5113102;28;20122;-69
2020/12/21 08:08:12;;;;;;;0.82;0.30;;;6.20;93.20;;;;;;5112527;28;20071;-69
2020/12/21 08:10:37;;;;;;;0.45;0.30;;;6.20;93.20;;;;;;5112374;28;20404;-69
2020/12/21 08:13:14;;;;;;;0.22;0.22;;;6.30;93.10;;;;;;5112892;28;20126;-69
2020/12/21 08:15:39;;;;;;;0.52;0.30;;;6.30;93.10;;;;;;5096419;28;20047;-69
2020/12/21 08:18:11;;;;;;;0.82;0.50;;;6.40;93.10;;;;;;5112684;28;20027;-69
2020/12/21 08:20:41;;;;;;;0.40;0.40;;;6.40;93.10;;;;;;5112854;28;20050;-69
2020/12/21 08:23:06;;;;;;;0.30;0.30;;;6.50;93.10;;;;;;5114664;28;20043;-69
2020/12/21 08:25:32;;;;;;;0.93;0.30;;;6.50;93.00;;;;;;5116518;28;20572;-69
2020/12/21 08:27:58;;;;;;;0.50;0.38;;;6.50;93.00;;;;;;5116310;28;20397;-69
2020/12/21 08:30:24;;;;;;;0.40;0.20;;;6.50;93.00;;;;;;5116302;28;20044;-69
2020/12/21 08:32:52;;;;;;;0.20;0.20;;;6.50;93.00;;;;;;5116181;28;20038;-69
2020/12/21 08:35:26;;;;;;;0.40;0.40;;;6.50;93.00;;;;;;5115837;28;20493;-70
2020/12/21 08:37:52;;;;;;;0.22;0.20;;;6.60;93.00;;;;;;5116173;28;20043;-69
2020/12/21 08:40:20;;;;;;;0.63;0.30;;;6.60;93.00;;;;;;5115805;28;20047;-69
2020/12/21 08:42:46;;;;;;;1.10;0.40;;;6.60;93.00;;;;;;5116202;28;20063;-69
2020/12/21 08:45:21;;;;;;;0.63;0.40;;;6.60;93.00;;;;;;5116469;28;20038;-70
2020/12/21 08:47:48;;;;;;;0.57;0.40;;;6.60;93.00;;;;;;5113745;28;20040;-69
2020/12/21 08:50:13;;;;;;;0.52;0.28;;;6.60;93.00;;;;;;5116359;28;20122;-69
2020/12/21 08:52:39;;;;;;;0.65;0.30;;;6.70;93.00;;;;;;5116266;28;20421;-69
2020/12/21 08:55:06;;;;;;;0.80;0.25;;;6.70;93.00;;;;;;5115643;28;20040;-69
2020/12/21 08:57:34;;;;;;;0.30;0.25;;;6.70;93.00;;;;;;5115719;28;20032;-70
2020/12/21 09:00:00;;;;;;;0.30;0.30;;;6.70;93.00;;;;;;5115453;28;20489;-70
2020/12/21 09:02:25;;;;;;;0.82;0.35;;;6.80;93.00;;;;;;5115342;28;20100;-69
2020/12/21 09:04:51;;;;;;;0.28;0.28;;;6.80;93.00;;;;;;5115454;28;20058;-70
2020/12/21 09:07:17;;;;;;;0.20;0.20;;;6.80;93.00;;;;;;5115426;28;20039;-69
2020/12/21 09:09:43;;;;;;;0.98;0.40;;;6.80;93.00;;;;;;5115121;28;20051;-69
2020/12/21 09:12:08;;;;;;;0.80;0.43;;;6.90;93.00;;;;;;5115145;28;20040;-71
2020/12/21 09:14:34;;;;;;;0.40;0.40;;;6.90;93.00;;;;;;5115337;28;20500;-70
2020/12/21 09:17:00;;;;;;;0.20;0.20;;;7.00;93.00;;;;;;5115087;28;20051;-70
2020/12/21 09:19:25;;;;;;;1.65;0.52;;;7.00;92.90;;;;;;5115535;28;20414;-69
2020/12/21 09:21:51;;;;;;;0.75;0.45;;;7.10;92.90;;;;;;5097444;28;20043;-70
2020/12/21 09:24:17;;;;;;;0.22;0.22;;;7.10;92.90;;;;;;5115534;28;20366;-69
2020/12/21 09:26:43;;;;;;;0.63;0.50;;;7.20;92.90;;;;;;5115355;28;20122;-71
2020/12/21 09:29:08;;;;;;;1.38;0.65;;;7.20;92.80;;;;;;5115431;28;20494;-71
2020/12/21 09:31:34;;;;;;;1.52;0.40;;;7.30;92.80;;;;;;5114864;28;20040;-70
2020/12/21 09:34:00;;;;;;;1.23;0.40;;;7.30;92.70;;;;;;5114487;28;20039;-70
2020/12/21 09:36:27;;;;;;;0.82;0.47;;;7.40;92.70;;;;;;5115010;28;20480;-70
2020/12/21 09:38:53;;;;;;;0.88;0.40;;;7.40;92.70;;;;;;5114955;28;20038;-70
2020/12/21 09:41:20;;;;;;;1.60;0.50;;;7.40;92.70;;;;;;5097022;28;20051;-70
2020/12/21 09:43:48;;;;;;;0.60;0.40;;;7.50;92.70;;;;;;5115027;28;20466;-71
2020/12/21 09:46:20;;;;;;;1.80;0.30;;;7.50;92.70;;;;;;5114704;28;20108;-70
2020/12/21 09:48:47;;;;;;;0.20;0.20;;;7.50;92.70;;;;;;5115094;28;20044;-70
2020/12/21 09:51:13;;;;;;;1.90;0.43;;;7.50;92.60;;;;;;5115086;28;20040;-70
2020/12/21 09:53:40;;;;;;;0.25;0.25;;;7.60;92.70;;;;;;5114937;28;20039;-70
2020/12/21 09:56:08;;;;;;;0.50;0.40;;;7.60;92.70;;;;;;5114636;28;20080;-70
2020/12/21 09:58:34;;;;;;;0.40;0.30;;;7.60;92.60;;;;;;5114512;28;20043;-71
2020/12/21 10:01:00;;;;;;;0.40;0.32;;;7.70;92.60;;;;;;5114553;28;20039;-70
2020/12/21 10:03:25;;;;;;;0.35;0.35;;;7.70;92.60;;;;;;5114514;28;20042;-70
2020/12/21 10:05:51;;;;;;;0.40;0.40;;;7.80;92.60;;;;;;5114995;28;20443;-70
2020/12/21 10:08:17;;;;;;;0.77;0.40;;;7.80;92.60;;;;;;5114492;28;20386;-70
2020/12/21 10:10:47;;;;;;;0.73;0.43;;;7.80;92.60;;;;;;5114183;28;20085;-70
2020/12/21 10:13:12;;;;;;;1.45;0.40;;;7.80;92.60;;;;;;5095286;28;20044;-70
2020/12/21 10:15:38;;;;;;;0.95;0.38;;;7.90;92.60;;;;;;5114277;28;20149;-70
2020/12/21 10:18:04;;;;;;;0.45;0.22;;;7.80;92.50;;;;;;5114559;28;20100;-70
2020/12/21 10:20:30;;;;;;;0.70;0.30;;;7.80;92.50;;;;;;5114274;28;20039;-70
2020/12/21 10:22:55;;;;;;;1.10;0.50;;;7.90;92.60;;;;;;5114001;28;20048;-70
2020/12/21 10:25:21;;;;;;;0.70;0.40;;;7.90;92.60;;;;;;5095839;28;20134;-70
2020/12/21 10:27:47;;;;;;;0.60;0.47;;;7.90;92.60;;;;;;5114128;28;20139;-69
2020/12/21 10:30:15;;;;;;;0.90;0.38;;;8.00;92.60;;;;;;5113750;28;20040;-69
2020/12/21 10:32:43;;;;;;;0.40;0.30;;;7.90;92.60;;;;;;5113921;28;20062;-71
2020/12/21 10:35:09;;;;;;;0.35;0.32;;;7.90;92.60;;;;;;5096172;28;20031;-70
2020/12/21 10:37:34;;;;;;;1.30;0.30;;;7.90;92.60;;;;;;5114386;28;20032;-71
2020/12/21 10:40:00;;;;;;;0.95;0.40;;;7.90;92.60;;;;;;5113664;28;20129;-70
2020/12/21 10:42:26;;;;;;;1.65;0.50;;;8.00;92.60;;;;;;5113805;28;20039;-70
2020/12/21 10:44:51;;;;;;;0.50;0.50;;;8.00;92.60;;;;;;5113607;28;20456;-69
2020/12/21 10:47:17;;;;;;;0.40;0.40;;;8.00;92.60;;;;;;5113755;28;20428;-70
2020/12/21 10:49:43;;;;;;;0.80;0.52;;;8.00;92.60;;;;;;5113476;28;20118;-70
2020/12/21 10:52:08;;;;;;;0.65;0.50;;;8.00;92.50;;;;;;5095359;28;20486;-70
2020/12/21 10:54:34;;;;;;;0.60;0.40;;;8.10;92.50;;;;;;5114056;28;20071;-70
2020/12/21 10:57:03;;;;;;;2.05;0.50;;;8.10;92.60;;;;;;5114219;28;20499;-70
2020/12/21 10:59:29;;;;;;;0.90;0.45;;;8.10;92.50;;;;;;5114111;28;20462;-70
2020/12/21 11:01:55;;;;;;;0.75;0.47;;;8.10;92.50;;;;;;5113744;28;20496;-70
2020/12/21 11:04:20;;;;;;;0.85;0.40;;;8.10;92.60;;;;;;5113545;28;20035;-70
2020/12/21 11:06:46;;;;;;;1.35;0.40;;;8.10;92.60;;;;;;5113593;28;20043;-71
2020/12/21 11:09:12;;;;;;;0.30;0.30;;;8.10;92.60;;;;;;5113433;28;20035;-71
2020/12/21 11:11:37;;;;;;;1.13;0.50;;;8.10;92.60;;;;;;5113229;28;20127;-70
2020/12/21 11:14:04;;;;;;;1.13;0.63;;;8.10;92.70;;;;;;5113551;28;20034;-70
2020/12/21 11:16:31;;;;;;;0.52;0.50;;;8.10;92.70;;;;;;5095100;28;20052;-70
2020/12/21 11:18:57;;;;;;;0.77;0.77;;;8.10;92.70;;;;;;5113337;28;20028;-71
2020/12/21 11:21:22;;;;;;;0.93;0.70;;;8.10;92.70;;;;;;5095886;28;20064;-70
2020/12/21 11:23:48;;;;;;;1.65;0.70;;;8.10;92.70;;;;;;5113507;28;20108;-71
2020/12/21 11:26:15;;;;;;;1.33;0.57;;;8.10;92.70;;;;;;5095112;28;20121;-70
2020/12/21 11:28:41;;;;;;;0.60;0.55;;;8.10;92.80;;;;;;5113811;28;20040;-71
2020/12/21 11:31:08;;;;;;;1.83;0.60;;;8.10;92.80;;;;;;5113670;28;20040;-71
2020/12/21 11:33:33;;;;;;;0.93;0.50;;;8.10;92.80;;;;;;5113462;28;20208;-71
2020/12/21 11:35:59;;;;;;;1.35;0.50;;;8.00;92.80;;;;;;5113733;28;20126;-71
2020/12/21 11:38:25;;;;;;;0.50;0.50;;;8.10;92.90;;;;;;5113128;28;20039;-71
2020/12/21 11:40:51;;;;;;;0.82;0.50;;;8.00;92.80;;;;;;5094006;28;20113;-71
2020/12/21 11:43:17;;;;;;;0.40;0.38;;;8.00;92.90;;;;;;5112804;28;20493;-71
2020/12/21 11:45:44;;;;;;;0.75;0.35;;;8.00;92.90;;;;;;5112806;28;20047;-71
2020/12/21 11:48:10;;;;;;;0.90;0.30;;;8.10;92.90;;;;;;5094745;28;20355;-71
2020/12/21 11:50:35;;;;;;;0.30;0.30;;;8.00;92.90;;;;;;5113363;28;20040;-70
2020/12/21 11:53:02;;;;;;;0.82;0.38;;;8.00;92.90;;;;;;5113321;28;20047;-71
2020/12/21 11:55:28;;;;;;;1.35;0.50;;;8.00;93.00;;;;;;5112885;28;20044;-71
2020/12/21 11:57:54;;;;;;;1.35;0.47;;;8.10;93.00;;;;;;5093841;28;20107;-71
2020/12/21 12:00:19;;;;;;;0.82;0.50;;;8.10;93.00;;;;;;5094453;28;20064;-71
2020/12/21 12:02:45;;;;;;;0.68;0.28;;;8.10;93.00;;;;;;5113029;28;20119;-71
2020/12/21 12:05:11;;;;;;;1.35;0.43;;;8.10;93.00;;;;;;5113044;28;20050;-71
2020/12/21 12:07:37;;;;;;;1.95;0.50;;;8.10;93.00;;;;;;5094460;28;20047;-72
2020/12/21 12:10:04;;;;;;;0.30;0.30;;;8.10;93.00;;;;;;5112892;28;20101;-72
2020/12/21 12:12:30;;;;;;;1.50;0.50;;;8.10;93.00;;;;;;5112580;28;20039;-72
2020/12/21 12:14:56;;;;;;;0.47;0.30;;;8.10;93.10;;;;;;5093844;28;20044;-74
2020/12/21 12:17:21;;;;;;;0.40;0.40;;;8.10;93.10;;;;;;5112575;28;20118;-73
2020/12/21 12:19:49;;;;;;;0.73;0.30;;;8.10;93.10;;;;;;5113041;28;20538;-72
2020/12/21 12:22:14;;;;;;;0.70;0.32;;;8.00;93.10;;;;;;5113113;28;20088;-72
2020/12/21 12:24:40;;;;;;;0.60;0.50;;;8.10;93.10;;;;;;5095050;28;20039;-72
2020/12/21 12:27:09;;;;;;;0.50;0.38;;;8.10;93.10;;;;;;5113059;28;20453;-73
2020/12/21 12:29:35;;;;;;;0.35;0.35;;;8.10;93.10;;;;;;5112879;28;20070;-72
2020/12/21 12:32:01;;;;;;;0.77;0.40;;;8.10;93.10;;;;;;5112376;28;20063;-74
2020/12/21 12:34:26;;;;;;;0.93;0.40;;;8.10;93.10;;;;;;5112309;28;20062;-73
2020/12/21 12:36:52;;;;;;;0.25;0.25;;;8.10;93.10;;;;;;5112369;28;20118;-74
2020/12/21 12:39:18;;;;;;;1.10;0.35;;;8.00;93.10;;;;;;5112128;28;20121;-74
2020/12/21 12:41:44;;;;;;;0.38;0.35;;;8.10;93.20;;;;;;5112191;28;20032;-73
2020/12/21 12:44:10;;;;;;;1.17;0.30;;;8.10;93.20;;;;;;5112684;28;20051;-74
2020/12/21 12:46:37;;;;;;;0.32;0.30;;;8.00;93.10;;;;;;5112720;28;20050;-74
2020/12/21 12:49:04;;;;;;;0.52;0.40;;;8.00;93.10;;;;;;5112893;28;20031;-74
2020/12/21 12:51:30;;;;;;;1.80;0.43;;;8.00;93.10;;;;;;5112345;28;20039;-74
2020/12/21 12:53:56;;;;;;;1.17;0.40;;;8.00;93.20;;;;;;5112288;28;20050;-73
2020/12/21 12:56:22;;;;;;;1.48;0.32;;;8.10;93.20;;;;;;5112114;28;20032;-73